createdAt,value
2019-05-09T00:01:13.989Z,1.67
2019-05-09T00:03:44.094Z,1.93
2019-05-09T00:06:13.576Z,1.53
2019-05-09T00:08:43.943Z,1.73
2019-05-09T00:11:14.518Z,1.67
2019-05-09T00:13:43.522Z,2.03
2019-05-09T00:16:14.234Z,2.10
2019-05-09T00:18:43.896Z,2.10
2019-05-09T00:21:13.519Z,1.90
2019-05-09T00:23:43.648Z,2.13
2019-05-09T00:26:13.377Z,1.92
2019-05-09T00:28:44.097Z,1.90
2019-05-09T00:31:16.655Z,2.13
2019-05-09T00:33:48.174Z,2.47
2019-05-09T00:36:16.977Z,2.00
2019-05-09T00:38:45.851Z,2.00
2019-05-09T00:41:14.205Z,2.70
2019-05-09T00:43:43.980Z,3.13
2019-05-09T00:46:14.114Z,2.60
2019-05-09T00:49:02.222Z,2.75
2019-05-09T00:51:30.536Z,2.42
2019-05-09T00:54:04.130Z,2.87
2019-05-09T00:56:34.748Z,2.60
2019-05-09T00:59:04.245Z,2.33
2019-05-09T01:01:34.193Z,3.17
2019-05-09T01:04:04.543Z,2.67
2019-05-09T01:06:34.015Z,2.47
2019-05-09T01:09:04.239Z,2.20
2019-05-09T01:11:33.314Z,2.70
2019-05-09T01:14:03.633Z,3.10
2019-05-09T01:16:33.480Z,2.40
2019-05-09T01:19:03.493Z,2.72
2019-05-09T01:21:34.493Z,3.03
2019-05-09T01:24:03.483Z,2.80
2019-05-09T01:26:33.335Z,2.33
2019-05-09T01:29:04.148Z,2.70
2019-05-09T01:31:33.269Z,2.80
2019-05-09T01:34:13.350Z,2.57
2019-05-09T01:36:59.646Z,3.07
2019-05-09T01:39:27.891Z,3.00
2019-05-09T01:41:59.249Z,2.77
2019-05-09T01:44:27.943Z,2.90
2019-05-09T01:46:56.141Z,3.10
2019-05-09T01:49:24.976Z,2.62
2019-05-09T01:51:53.830Z,2.70
2019-05-09T01:54:25.988Z,2.70
2019-05-09T01:56:54.092Z,3.77
2019-05-09T01:59:25.204Z,3.03
2019-05-09T02:01:54.123Z,3.20
2019-05-09T02:04:24.259Z,2.90
2019-05-09T02:06:53.767Z,3.07
2019-05-09T02:09:23.447Z,3.40
2019-05-09T02:11:54.307Z,2.63
2019-05-09T02:14:23.974Z,3.27
2019-05-09T02:17:03.286Z,3.73
2019-05-09T02:19:33.294Z,3.43
2019-05-09T02:22:03.591Z,3.70
2019-05-09T02:24:33.715Z,3.50
2019-05-09T02:27:04.010Z,3.30
2019-05-09T02:29:34.305Z,3.53
2019-05-09T02:32:04.505Z,3.87
2019-05-09T02:34:35.723Z,4.30
2019-05-09T02:37:02.999Z,3.63
2019-05-09T02:39:31.182Z,4.10
2019-05-09T02:42:07.993Z,3.73
2019-05-09T02:44:29.256Z,3.80
2019-05-09T02:47:01.833Z,3.93
2019-05-09T02:49:29.951Z,4.70
2019-05-09T02:51:59.218Z,5.03
2019-05-09T02:54:29.857Z,4.17
2019-05-09T02:56:58.211Z,3.93
2019-05-09T02:59:31.344Z,4.03
2019-05-09T03:02:12.995Z,4.63
2019-05-09T03:04:41.205Z,4.15
2019-05-09T03:07:09.901Z,4.40
2019-05-09T03:09:38.985Z,4.37
2019-05-09T03:12:22.565Z,4.77
2019-05-09T03:14:38.476Z,4.37
2019-05-09T03:17:08.820Z,5.25
2019-05-09T03:19:38.694Z,4.90
2019-05-09T03:22:08.728Z,4.23
2019-05-09T03:24:40.039Z,5.23
2019-05-09T03:27:09.806Z,4.90
2019-05-09T03:29:48.591Z,5.00
2019-05-09T03:32:19.035Z,5.17
2019-05-09T03:34:47.667Z,4.97
2019-05-09T03:37:17.476Z,5.55
2019-05-09T03:39:45.011Z,5.13
2019-05-09T03:42:13.104Z,6.57
2019-05-09T03:44:42.758Z,6.27
2019-05-09T03:47:12.507Z,5.83
2019-05-09T03:49:40.607Z,7.50
2019-05-09T03:52:08.734Z,5.73
2019-05-09T03:54:37.530Z,5.40
2019-05-09T03:57:24.078Z,5.20
2019-05-09T03:59:53.711Z,5.80
2019-05-09T04:02:21.899Z,5.67
2019-05-09T04:04:50.010Z,5.70
2019-05-09T04:07:18.781Z,6.40
2019-05-09T04:09:47.978Z,5.57
2019-05-09T04:12:18.105Z,5.53
2019-05-09T04:14:47.963Z,6.07
2019-05-09T04:17:22.725Z,5.40
2019-05-09T04:19:50.824Z,5.50
2019-05-09T04:22:19.015Z,5.00
2019-05-09T04:24:47.587Z,4.97
2019-05-09T04:27:20.111Z,5.83
2019-05-09T04:29:48.449Z,5.20
2019-05-09T04:32:18.278Z,5.10
2019-05-09T04:34:47.455Z,5.10
2019-05-09T04:37:17.861Z,5.23
2019-05-09T04:39:47.213Z,4.93
2019-05-09T04:42:18.504Z,5.30
2019-05-09T04:45:03.058Z,5.23
2019-05-09T04:47:27.908Z,4.00
2019-05-09T04:49:58.365Z,4.47
2019-05-09T04:52:27.928Z,4.60
2019-05-09T04:54:57.976Z,6.17
2019-05-09T04:57:27.873Z,4.60
2019-05-09T04:59:57.556Z,4.73
2019-05-09T05:02:27.698Z,5.53
2019-05-09T05:04:58.278Z,5.80
2019-05-09T05:07:25.666Z,5.70
2019-05-09T05:09:53.843Z,5.17
2019-05-09T05:12:22.170Z,5.15
2019-05-09T05:15:20.321Z,4.50
2019-05-09T05:17:22.483Z,4.80
2019-05-09T05:19:51.117Z,4.57
2019-05-09T05:22:20.940Z,4.50
2019-05-09T05:24:50.749Z,3.62
2019-05-09T05:27:19.096Z,4.07
2019-05-09T05:29:47.693Z,4.12
2019-05-09T05:32:17.882Z,3.50
2019-05-09T05:35:02.987Z,3.97
2019-05-09T05:37:31.087Z,3.45
2019-05-09T05:39:59.274Z,3.70
2019-05-09T05:42:28.301Z,3.70
2019-05-09T05:44:58.306Z,3.57
2019-05-09T05:47:29.353Z,2.83
2019-05-09T05:49:57.829Z,3.60
2019-05-09T05:52:27.761Z,3.33
2019-05-09T05:54:58.048Z,3.73
2019-05-09T05:57:27.440Z,4.67
2019-05-09T05:59:58.327Z,3.57
2019-05-09T06:02:28.093Z,3.77
2019-05-09T06:04:57.904Z,6.00
2019-05-09T06:07:28.385Z,3.15
2019-05-09T06:09:57.583Z,4.10
2019-05-09T06:12:27.629Z,2.80
2019-05-09T06:14:58.077Z,3.70
2019-05-09T06:17:28.445Z,3.37
2019-05-09T06:19:55.684Z,2.83
2019-05-09T06:22:27.467Z,2.73
2019-05-09T06:24:55.232Z,3.10
2019-05-09T06:27:23.469Z,3.03
2019-05-09T06:29:51.595Z,3.07
2019-05-09T06:32:19.739Z,3.70
2019-05-09T06:34:47.892Z,4.37
2019-05-09T06:37:18.166Z,3.20
2019-05-09T06:39:45.877Z,3.40
2019-05-09T06:42:14.116Z,3.43
2019-05-09T06:44:59.848Z,3.12
2019-05-09T06:47:29.644Z,3.13
2019-05-09T06:50:05.323Z,3.83
2019-05-09T06:52:33.538Z,3.00
2019-05-09T06:55:01.644Z,2.98
2019-05-09T06:57:29.756Z,3.07
2019-05-09T06:59:58.185Z,3.00
2019-05-09T07:02:33.941Z,2.93
2019-05-09T07:05:04.143Z,3.87
2019-05-09T07:07:33.902Z,3.23
2019-05-09T07:10:07.555Z,3.00
2019-05-09T07:12:37.972Z,3.33
2019-05-09T07:15:08.471Z,2.47
2019-05-09T07:17:38.564Z,3.20
2019-05-09T07:20:08.156Z,3.57
2019-05-09T07:22:39.182Z,3.00
2019-05-09T07:25:18.606Z,3.30
2019-05-09T07:27:48.331Z,3.53
2019-05-09T07:30:24.466Z,2.98
2019-05-09T07:32:54.284Z,3.00
2019-05-09T07:35:22.410Z,3.40
2019-05-09T07:37:50.573Z,3.53
2019-05-09T07:40:18.827Z,3.33
2019-05-09T07:42:47.931Z,3.60
2019-05-09T07:45:17.885Z,3.10
2019-05-09T07:47:47.810Z,3.07
2019-05-09T07:50:19.170Z,3.43
2019-05-09T07:52:47.979Z,3.02
2019-05-09T07:55:18.094Z,4.10
2019-05-09T07:57:54.627Z,3.23
2019-05-09T08:00:18.418Z,3.83
2019-05-09T08:02:47.700Z,3.67
2019-05-09T08:05:17.502Z,4.55
2019-05-09T08:07:48.434Z,3.60
2019-05-09T08:10:17.567Z,3.03
2019-05-09T08:12:47.921Z,2.97
2019-05-09T08:15:17.451Z,2.83
2019-05-09T08:17:44.992Z,2.90
2019-05-09T08:20:13.956Z,3.05
2019-05-09T08:22:50.672Z,3.40
2019-05-09T08:25:12.389Z,3.33
2019-05-09T08:27:40.562Z,3.10
2019-05-09T08:30:08.800Z,3.20
2019-05-09T08:32:37.789Z,3.73
2019-05-09T08:35:08.290Z,3.53
2019-05-09T08:37:38.834Z,3.15
2019-05-09T08:40:08.007Z,4.00
2019-05-09T08:42:37.865Z,3.30
2019-05-09T08:45:09.758Z,3.50
2019-05-09T08:47:38.039Z,3.00
2019-05-09T08:50:08.121Z,3.67
2019-05-09T08:52:37.696Z,3.23
2019-05-09T08:55:08.153Z,3.07
2019-05-09T08:57:37.545Z,2.73
2019-05-09T09:00:09.169Z,2.90
2019-05-09T09:02:37.733Z,3.60
2019-05-09T09:05:08.643Z,7.08
2019-05-09T09:07:37.959Z,2.87
2019-05-09T09:10:08.449Z,2.60
2019-05-09T09:12:38.386Z,2.43
2019-05-09T09:15:07.738Z,2.20
2019-05-09T09:17:38.331Z,3.17
2019-05-09T09:20:07.691Z,2.00
2019-05-09T09:22:37.585Z,1.87
2019-05-09T09:25:07.658Z,1.80
2019-05-09T09:27:38.023Z,3.37
2019-05-09T09:30:17.816Z,2.30
2019-05-09T09:32:38.805Z,2.57
2019-05-09T09:35:08.018Z,2.13
2019-05-09T09:37:47.608Z,3.03
2019-05-09T09:40:08.726Z,2.90
2019-05-09T09:42:39.379Z,2.75
2019-05-09T09:45:07.804Z,1.73
2019-05-09T09:47:39.561Z,1.72
2019-05-09T09:50:08.586Z,1.47
2019-05-09T09:52:38.383Z,1.80
2019-05-09T09:55:08.777Z,1.70
2019-05-09T09:57:37.730Z,1.77
2019-05-09T10:00:08.627Z,2.00
2019-05-09T10:02:38.000Z,1.40
2019-05-09T10:05:07.725Z,1.57
2019-05-09T10:07:38.313Z,1.70
2019-05-09T10:10:07.886Z,2.12
2019-05-09T10:12:43.536Z,1.37
2019-05-09T10:15:24.070Z,1.40
2019-05-09T10:18:02.621Z,1.67
2019-05-09T10:20:42.445Z,1.10
2019-05-09T10:23:18.150Z,0.80
2019-05-09T10:25:40.423Z,1.10
2019-05-09T10:28:08.805Z,1.27
2019-05-09T10:30:38.257Z,1.20
2019-05-09T10:33:09.120Z,0.73
2019-05-09T10:35:39.212Z,0.80
2019-05-09T10:38:08.754Z,1.00
2019-05-09T10:40:39.812Z,0.73
2019-05-09T10:43:11.499Z,0.80
2019-05-09T10:45:57.953Z,0.70
2019-05-09T10:48:28.273Z,0.73
2019-05-09T10:51:03.568Z,1.20
2019-05-09T10:53:28.419Z,1.00
2019-05-09T10:55:56.556Z,1.20
2019-05-09T10:58:24.672Z,3.93
2019-05-09T11:00:52.818Z,1.17
2019-05-09T11:03:21.024Z,0.87
2019-05-09T11:05:49.171Z,0.70
2019-05-09T11:08:18.446Z,0.77
2019-05-09T11:10:47.693Z,0.80
2019-05-09T11:13:18.000Z,1.60
2019-05-09T11:15:47.975Z,1.00
2019-05-09T11:18:18.388Z,1.20
2019-05-09T11:20:46.308Z,0.83
2019-05-09T11:23:14.505Z,1.03
2019-05-09T11:25:42.696Z,1.53
2019-05-09T11:28:14.997Z,1.90
2019-05-09T11:30:41.665Z,1.67
2019-05-09T11:33:09.783Z,2.05
2019-05-09T11:35:38.226Z,1.53
2019-05-09T11:38:08.370Z,1.60
2019-05-09T11:40:37.803Z,1.50
2019-05-09T11:43:06.163Z,1.70
2019-05-09T11:45:34.394Z,1.83
2019-05-09T11:48:02.580Z,1.97
2019-05-09T11:50:30.815Z,1.85
2019-05-09T11:52:59.965Z,1.90
2019-05-09T11:55:35.152Z,1.95
2019-05-09T11:57:59.185Z,2.00
2019-05-09T12:00:29.409Z,1.73
2019-05-09T12:02:58.203Z,2.00
2019-05-09T12:05:28.595Z,2.03
2019-05-09T12:07:58.126Z,1.53
2019-05-09T12:10:28.355Z,1.60
2019-05-09T12:12:57.588Z,9.53
2019-05-09T12:15:28.807Z,1.70
2019-05-09T12:18:02.159Z,2.00
2019-05-09T12:20:27.707Z,1.60
2019-05-09T12:22:58.201Z,2.00
2019-05-09T12:25:28.087Z,1.52
2019-05-09T12:27:58.214Z,2.62
2019-05-09T12:30:28.240Z,1.70
2019-05-09T12:32:58.780Z,1.90
2019-05-09T12:35:26.345Z,3.30
2019-05-09T12:37:54.499Z,2.33
2019-05-09T12:40:22.650Z,9.47
2019-05-09T12:42:50.771Z,2.13
2019-05-09T12:45:18.998Z,1.50
2019-05-09T12:47:47.139Z,2.27
2019-05-09T12:50:18.555Z,1.83
2019-05-09T12:52:48.605Z,1.70
2019-05-09T12:55:17.874Z,3.20
2019-05-09T12:57:48.683Z,2.00
2019-05-09T13:00:18.455Z,1.53
2019-05-09T13:02:46.052Z,1.60
2019-05-09T13:05:14.372Z,2.07
2019-05-09T13:07:42.605Z,2.90
2019-05-09T13:10:10.743Z,2.53
2019-05-09T13:12:39.255Z,2.13
2019-05-09T13:15:10.405Z,2.23
2019-05-09T13:17:43.503Z,2.67
2019-05-09T13:20:12.860Z,2.23
2019-05-09T13:22:41.888Z,3.10
2019-05-09T13:25:09.986Z,1.93
2019-05-09T13:27:38.928Z,3.33
2019-05-09T13:30:08.315Z,2.23
2019-05-09T13:32:37.516Z,2.13
2019-05-09T13:35:06.372Z,2.20
2019-05-09T13:37:34.477Z,2.10
2019-05-09T13:40:02.659Z,2.30
2019-05-09T13:42:30.774Z,2.30
2019-05-09T13:44:58.953Z,2.87
2019-05-09T13:47:28.015Z,2.02
2019-05-09T13:49:58.944Z,2.23
2019-05-09T13:52:27.384Z,2.70
2019-05-09T13:54:55.786Z,2.37
2019-05-09T13:57:24.000Z,2.53
2019-05-09T13:59:52.223Z,2.77
2019-05-09T14:02:21.228Z,2.65
2019-05-09T14:04:49.390Z,3.37
2019-05-09T14:07:19.296Z,3.33
2019-05-09T14:09:48.403Z,3.23
2019-05-09T14:12:17.491Z,2.63
2019-05-09T14:14:46.008Z,3.73
2019-05-09T14:17:14.223Z,2.87
2019-05-09T14:19:46.414Z,2.60
2019-05-09T14:22:12.500Z,3.43
2019-05-09T14:24:41.278Z,3.75
2019-05-09T14:27:09.420Z,4.97
2019-05-09T14:29:38.372Z,4.47
2019-05-09T14:32:06.719Z,3.47
2019-05-09T14:34:37.637Z,4.20
2019-05-09T14:37:04.730Z,4.10
2019-05-09T14:39:32.945Z,4.00
2019-05-09T14:42:01.142Z,3.67
2019-05-09T14:44:29.290Z,4.23
2019-05-09T14:46:58.481Z,3.73
2019-05-09T14:49:39.822Z,3.50
2019-05-09T14:51:57.952Z,3.63
2019-05-09T14:54:28.656Z,3.53
2019-05-09T14:56:58.317Z,2.97
2019-05-09T14:59:28.412Z,3.22
2019-05-09T15:01:58.891Z,2.73
2019-05-09T15:04:27.813Z,2.12
2019-05-09T15:06:57.849Z,2.67
2019-05-09T15:09:25.476Z,9.23
2019-05-09T15:11:53.695Z,2.83
2019-05-09T15:14:21.912Z,2.77
2019-05-09T15:16:50.108Z,2.00
2019-05-09T15:19:18.441Z,2.20
2019-05-09T15:21:48.770Z,2.53
2019-05-09T15:24:18.903Z,2.30
2019-05-09T15:26:47.919Z,2.80
2019-05-09T15:29:16.308Z,1.87
2019-05-09T15:31:44.653Z,2.17
2019-05-09T15:34:12.749Z,1.90
2019-05-09T15:36:41.552Z,1.80
2019-05-09T15:39:09.680Z,1.73
2019-05-09T15:41:38.435Z,3.13
2019-05-09T15:44:08.249Z,1.60
2019-05-09T15:46:38.448Z,1.60
2019-05-09T15:49:07.671Z,1.30
2019-05-09T15:51:35.894Z,1.83
2019-05-09T15:54:03.999Z,1.70
2019-05-09T15:56:32.120Z,1.80
2019-05-09T15:59:00.230Z,1.50
2019-05-09T16:01:28.384Z,2.20
2019-05-09T16:03:56.509Z,1.70
2019-05-09T16:06:24.698Z,1.43
2019-05-09T16:08:53.091Z,1.63
2019-05-09T16:11:21.204Z,5.12
2019-05-09T16:13:49.331Z,1.80
2019-05-09T16:16:18.219Z,2.17
2019-05-09T16:18:48.537Z,2.30
2019-05-09T16:21:16.307Z,2.00
2019-05-09T16:23:44.416Z,2.10
2019-05-09T16:26:12.619Z,1.40
2019-05-09T16:28:40.795Z,1.40
2019-05-09T16:31:08.969Z,1.60
2019-05-09T16:33:37.128Z,1.30
2019-05-09T16:36:05.323Z,1.60
2019-05-09T16:38:45.184Z,1.70
2019-05-09T16:41:22.630Z,1.70
2019-05-09T16:43:50.723Z,2.50
2019-05-09T16:46:19.104Z,1.90
2019-05-09T16:48:48.003Z,1.53
2019-05-09T16:51:18.201Z,1.50
2019-05-09T16:53:47.531Z,1.73
2019-05-09T16:56:18.042Z,1.90
2019-05-09T16:58:45.884Z,1.50
2019-05-09T17:01:14.126Z,1.50
2019-05-09T17:03:42.283Z,1.63
2019-05-09T17:06:10.401Z,2.00
2019-05-09T17:08:38.624Z,1.50
2019-05-09T17:11:07.763Z,1.82
2019-05-09T17:13:36.057Z,1.97
2019-05-09T17:16:04.335Z,1.53
2019-05-09T17:18:32.538Z,1.70
2019-05-09T17:21:15.096Z,1.20
2019-05-09T17:23:32.181Z,1.30
2019-05-09T17:26:00.495Z,1.90
2019-05-09T17:28:28.721Z,1.17
2019-05-09T17:30:57.859Z,1.17
2019-05-09T17:33:28.696Z,3.92
2019-05-09T17:35:57.737Z,1.83
2019-05-09T17:38:27.917Z,3.00
2019-05-09T17:40:57.679Z,3.40
2019-05-09T17:43:27.845Z,3.50
2019-05-09T17:45:58.523Z,3.47
2019-05-09T17:48:28.472Z,4.37
2019-05-09T17:50:57.877Z,3.87
2019-05-09T17:53:28.614Z,4.03
2019-05-09T17:55:58.362Z,5.70
2019-05-09T17:58:30.427Z,4.40
2019-05-09T18:00:57.467Z,4.87
2019-05-09T18:03:29.139Z,8.53
2019-05-09T18:05:57.860Z,16.37
2019-05-09T18:08:28.148Z,7.67
2019-05-09T18:10:58.327Z,5.77
2019-05-09T18:13:29.607Z,4.37
2019-05-09T18:15:55.937Z,5.03
2019-05-09T18:18:24.221Z,4.20
2019-05-09T18:20:52.630Z,6.17
2019-05-09T18:23:20.902Z,6.87
2019-05-09T18:25:49.556Z,5.63
2019-05-09T18:28:17.849Z,5.97
2019-05-09T18:30:47.836Z,4.77
2019-05-09T18:33:20.281Z,5.40
2019-05-09T18:35:48.492Z,7.07
2019-05-09T18:38:24.360Z,7.13
2019-05-09T18:40:52.694Z,7.30
2019-05-09T18:43:20.856Z,7.63
2019-05-09T18:45:49.091Z,8.43
2019-05-09T18:48:18.707Z,8.40
2019-05-09T18:50:47.104Z,12.90
2019-05-09T18:53:15.348Z,9.03
2019-05-09T18:55:43.724Z,8.47
2019-05-09T18:58:12.017Z,8.33
2019-05-09T19:00:40.208Z,5.53
2019-05-09T19:03:08.321Z,5.87
2019-05-09T19:05:36.577Z,4.53
2019-05-09T19:08:04.783Z,4.40
2019-05-09T19:10:32.963Z,4.33
2019-05-09T19:13:01.204Z,4.50
2019-05-09T19:15:31.054Z,4.70
2019-05-09T19:18:00.926Z,5.30
2019-05-09T19:20:36.564Z,4.93
2019-05-09T19:23:05.327Z,4.97
2019-05-09T19:25:34.247Z,5.93
2019-05-09T19:28:02.608Z,5.53
2019-05-09T19:30:30.744Z,4.83
2019-05-09T19:32:59.016Z,4.00
2019-05-09T19:35:27.271Z,3.47
2019-05-09T19:37:55.401Z,4.30
2019-05-09T19:40:23.644Z,4.10
2019-05-09T19:42:51.904Z,3.87
2019-05-09T19:45:20.160Z,4.20
2019-05-09T19:47:51.546Z,3.37
2019-05-09T19:50:19.785Z,3.97
2019-05-09T19:52:47.919Z,3.35
2019-05-09T19:55:16.108Z,3.80
2019-05-09T19:57:44.271Z,3.73
2019-05-09T20:00:13.982Z,3.07
2019-05-09T20:02:42.165Z,3.83
2019-05-09T20:05:10.442Z,3.57
2019-05-09T20:07:41.648Z,3.80
2019-05-09T20:10:11.551Z,3.37
2019-05-09T20:12:44.303Z,3.63
2019-05-09T20:15:14.419Z,3.60
2019-05-09T20:17:42.958Z,3.20
2019-05-09T20:20:11.567Z,3.70
2019-05-09T20:22:51.970Z,4.47
2019-05-09T20:25:10.805Z,4.20
2019-05-09T20:27:39.299Z,5.47
2019-05-09T20:30:08.551Z,5.62
2019-05-09T20:32:36.767Z,7.10
2019-05-09T20:35:07.232Z,5.90
2019-05-09T20:37:35.689Z,6.12
2019-05-09T20:40:05.566Z,6.50
2019-05-09T20:42:33.980Z,6.17
2019-05-09T20:45:05.281Z,5.60
2019-05-09T20:47:33.690Z,6.25
2019-05-09T20:50:02.220Z,6.77
2019-05-09T20:52:30.652Z,6.45
2019-05-09T20:54:58.936Z,5.73
2019-05-09T20:57:27.317Z,7.47
2019-05-09T20:59:55.749Z,6.63
2019-05-09T21:02:24.054Z,11.37
2019-05-09T21:04:52.448Z,7.78
2019-05-09T21:07:20.805Z,8.33
2019-05-09T21:09:49.356Z,8.07
2019-05-09T21:12:17.645Z,8.57
2019-05-09T21:14:45.936Z,7.43
2019-05-09T21:17:14.464Z,7.07
2019-05-09T21:19:42.842Z,7.07
2019-05-09T21:22:11.221Z,7.27
2019-05-09T21:24:39.517Z,7.40
2019-05-09T21:27:07.846Z,6.50
2019-05-09T21:29:37.602Z,6.97
2019-05-09T21:32:05.955Z,7.10
2019-05-09T21:34:34.118Z,7.30
2019-05-09T21:37:02.444Z,7.70
2019-05-09T21:39:30.681Z,7.00
2019-05-09T21:41:58.815Z,7.47
2019-05-09T21:44:28.453Z,7.57
2019-05-09T21:46:56.631Z,6.83
2019-05-09T21:49:24.827Z,7.87
2019-05-09T21:51:53.119Z,7.33
2019-05-09T21:54:21.999Z,7.37
2019-05-09T21:56:50.124Z,6.90
2019-05-09T21:59:18.280Z,7.07
2019-05-09T22:01:46.530Z,6.47
2019-05-09T22:04:14.769Z,7.83
2019-05-09T22:06:42.999Z,8.03
2019-05-09T22:09:11.313Z,7.40
2019-05-09T22:11:39.567Z,7.75
2019-05-09T22:14:07.827Z,8.10
2019-05-09T22:16:36.675Z,7.17
2019-05-09T22:19:04.854Z,7.73
2019-05-09T22:21:32.961Z,8.23
2019-05-09T22:24:01.079Z,7.62
2019-05-09T22:26:29.229Z,8.80
2019-05-09T22:28:57.347Z,8.28
2019-05-09T22:31:25.464Z,8.27
2019-05-09T22:33:53.952Z,7.13
2019-05-09T22:36:22.125Z,7.97
2019-05-09T22:38:50.232Z,7.30
2019-05-09T22:41:18.345Z,8.40
2019-05-09T22:43:46.447Z,8.20
2019-05-09T22:46:14.575Z,8.97
2019-05-09T22:48:42.677Z,7.90
2019-05-09T22:51:10.830Z,8.45
2019-05-09T22:53:39.117Z,8.53
2019-05-09T22:56:07.301Z,7.43
2019-05-09T22:58:35.411Z,8.30
2019-05-09T23:01:03.629Z,6.70
2019-05-09T23:03:31.776Z,5.37
2019-05-09T23:05:59.899Z,4.90
2019-05-09T23:08:28.752Z,6.87
2019-05-09T23:10:56.877Z,5.77
2019-05-09T23:13:25.077Z,7.03
2019-05-09T23:15:53.326Z,6.93
2019-05-09T23:18:21.460Z,7.20
2019-05-09T23:20:51.333Z,6.97
2019-05-09T23:23:21.246Z,6.37
2019-05-09T23:25:49.428Z,7.25
2019-05-09T23:28:17.625Z,7.60
2019-05-09T23:30:46.318Z,6.63
2019-05-09T23:33:14.493Z,7.30
2019-05-09T23:35:42.596Z,8.00
2019-05-09T23:38:10.767Z,7.23
2019-05-09T23:40:38.884Z,7.07
2019-05-09T23:43:07.065Z,7.67
2019-05-09T23:45:35.244Z,7.20
2019-05-09T23:48:04.100Z,7.35
2019-05-09T23:50:32.223Z,7.30
2019-05-09T23:53:01.036Z,7.17
2019-05-09T23:55:47.311Z,7.03
2019-05-09T23:58:33.477Z,6.93
